Terminal Aerodrome Forecast
Issued by NWS

Current Version | Previous Version | Graphics & Text | Print | Product List | Glossary On
Versions: 1 2 3 4 5 6 7 8 9 10 11 12 13 14 15 16 17 18 19
000
FTUS41 KILN 161736
TAFLUK
TAF
KLUK 161736Z 1618/1718 19005KT P6SM VCSH SCT040 BKN250
     FM162300 18003KT P6SM SCT060 BKN250
     FM170600 00000KT 5SM BR BKN100
      TEMPO 1709/1712 2SM BR
     FM171300 18005KT P6SM BKN080
     FM171500 20012KT P6SM VCSH BKN050=

USA.gov is the U.S. government's official web portal to all federal, state and local government web resources and services.